Puerto Vallarta, Mexico

10:04 AM CDT on July 26, 2016 (GMT -0500)
Lic Gustavo Diaz Ordaz International | | Change Station

Elev 20 ft 20.68 °N, 105.25 °W | Updated 22 minutes ago

Mostly Cloudy
Mostly Cloudy
81 °F
Feels Like 87 °F
N
0
Wind Variable Wind from North

Today
High -- | Low -- °F
--% Chance of Precip.
Yesterday
High -- | Low -- °F
Precip. -- in
Pressure 29.87 in
Visibility 15.0 miles
Clouds Scattered Clouds 2000 ft
Scattered Clouds 8000 ft
Mostly Cloudy 25000 ft
Heat Index 87 °F
Dew Point 77 °F
Humidity 89%
Rainfall 0.00 in
Snow Depth Not available.
7:33 AM 8:41 PM
Waning Gibbous, 54% visible
METAR MMPR 261442Z 00000KT 15SM SCT020 SCT080 BKN250 27/25 A2988 RMK SLP115 52011 952 8/478 DSNSTS CB 3-4 QUADS
Pressure 29.87 in
Visibility 15.0 miles
Clouds Scattered Clouds 2000 ft
Scattered Clouds 8000 ft
Mostly Cloudy 25000 ft
Heat Index 87 °F
Dew Point 77 °F
Humidity 89%
Rainfall 0.00 in
Snow Depth Not available.
7:33 AM 8:41 PM
Waning Gibbous, 54% visible
METAR MMPR 261442Z 00000KT 15SM SCT020 SCT080 BKN250 27/25 A2988 RMK SLP115 52011 952 8/478 DSNSTS CB 3-4 QUADS

10-Day Weather Forecast

No radar image for this location.
×

Almanac

Astronomy

Jul. 26, 2016 Rise Set
Actual Time
Civil Twilight
Nautical Twilight
Astronomical Twilight
Moon
Length of Visible Light
Length of Day
Tomorrow will be .
, % of the Moon is Illuminated

Today's Extremes

Country Highs Country Lows

Community

WunderPhotos

Upload Photos

1,927,608 photos uploaded!

WunderBlog® & News

Nearby

Air Quality

  Air Quality AQ Index Pollutant
Not available.

Snow Depth

Station Depth Elevation

Earthquake Activity

City Distance Mag. Time & Date
Minimum magnitude displayed is 2.5.

Coastal Water Temperatures

Place Temperature

Stations

Nearby Weather Stations

Station Location Temp. Windchill Dew Point Humidity Wind Precip. Elev Updated Type